createdAt,value
2022-10-23T00:01:44.711Z,99208.69
2022-10-23T00:04:25.314Z,99204.84
2022-10-23T00:06:52.266Z,99204.56
2022-10-23T00:09:22.141Z,99208.41
2022-10-23T00:11:50.297Z,99210.38
2022-10-23T00:14:22.142Z,99213.06
2022-10-23T00:16:48.995Z,99217.19
2022-10-23T00:19:15.899Z,99214.25
2022-10-23T00:21:42.886Z,99228.25
2022-10-23T00:26:38.367Z,99221.00
2022-10-23T00:29:05.170Z,99225.44
2022-10-23T00:31:32.401Z,99216.78
2022-10-23T00:34:00.746Z,99209.59
2022-10-23T00:36:27.473Z,99215.38
2022-10-23T00:38:54.849Z,99211.00
2022-10-23T00:41:25.056Z,99207.72
2022-10-23T00:44:18.026Z,99205.91
2022-10-23T00:46:46.106Z,99215.19
2022-10-23T00:49:13.452Z,99209.56
2022-10-23T00:51:50.568Z,99209.25
2022-10-23T00:54:25.075Z,99207.03
2022-10-23T00:56:57.830Z,99217.50
2022-10-23T00:59:24.756Z,99222.63
2022-10-23T01:01:52.158Z,99218.66
2022-10-23T01:04:19.830Z,99228.63
2022-10-23T01:07:08.410Z,99232.00
2022-10-23T01:09:54.431Z,99231.69
2022-10-23T01:12:42.168Z,99228.66
2022-10-23T01:15:27.995Z,99224.28
2022-10-23T01:18:15.843Z,99224.88
2022-10-23T01:20:52.271Z,99221.47
2022-10-23T01:23:22.142Z,99221.00
2022-10-23T01:26:03.543Z,99220.78
2022-10-23T01:28:42.263Z,99225.53
2022-10-23T01:31:14.918Z,99228.22
2022-10-23T01:33:47.088Z,99219.06
2022-10-23T01:36:19.270Z,99232.41
2022-10-23T01:38:54.016Z,99239.78
2022-10-23T01:41:42.008Z,99236.94
2022-10-23T01:44:23.608Z,99229.69
2022-10-23T01:46:51.911Z,99225.13
2022-10-23T01:49:20.459Z,99224.44
2022-10-23T01:51:55.535Z,99229.50
2022-10-23T01:54:25.553Z,99239.47
2022-10-23T01:56:53.133Z,99229.53
2022-10-23T01:59:28.412Z,99233.28
2022-10-23T02:01:57.012Z,99227.56
2022-10-23T02:04:28.190Z,99222.50
2022-10-23T02:06:54.786Z,99227.34
2022-10-23T02:09:21.602Z,99229.72
2022-10-23T02:11:55.554Z,99227.75
2022-10-23T02:14:53.476Z,99227.44
2022-10-23T02:17:41.745Z,99226.28
2022-10-23T02:20:41.159Z,99231.50
2022-10-23T02:23:36.007Z,99229.56
2022-10-23T02:26:11.379Z,99230.47
2022-10-23T02:28:46.190Z,99229.66
2022-10-23T02:31:14.683Z,99232.91
2022-10-23T02:33:44.050Z,99236.41
2022-10-23T02:36:10.837Z,99236.03
2022-10-23T02:38:42.747Z,99235.47
2022-10-23T02:41:35.044Z,99232.75
2022-10-23T02:44:29.711Z,99231.94
2022-10-23T02:47:18.198Z,99221.72
2022-10-23T02:49:57.604Z,99228.25
2022-10-23T02:52:40.647Z,99216.06
2022-10-23T02:55:26.448Z,99214.59
2022-10-23T02:58:19.358Z,99210.28
2022-10-23T03:00:56.002Z,99218.34
2022-10-23T03:03:27.776Z,99201.25
2022-10-23T03:05:54.812Z,99207.47
2022-10-23T03:08:21.514Z,99198.94
2022-10-23T03:13:14.948Z,99202.44
2022-10-23T03:15:43.573Z,99190.75
2022-10-23T03:18:13.506Z,99183.09
2022-10-23T03:20:45.072Z,99182.38
2022-10-23T03:23:13.163Z,99181.47
2022-10-23T03:25:39.974Z,99184.50
2022-10-23T03:28:06.710Z,99185.22
2022-10-23T03:30:35.233Z,99179.03
2022-10-23T03:33:02.051Z,99179.59
2022-10-23T03:35:28.764Z,99187.28
2022-10-23T03:37:55.598Z,99190.03
2022-10-23T03:40:24.735Z,99187.09
2022-10-23T03:42:51.518Z,99192.63
2022-10-23T03:45:19.418Z,99191.56
2022-10-23T03:47:48.628Z,99189.22
2022-10-23T03:50:15.635Z,99203.16
2022-10-23T03:52:42.918Z,99203.72
2022-10-23T03:55:12.260Z,99203.72
2022-10-23T03:57:39.064Z,99206.41
2022-10-23T04:00:07.121Z,99197.00
2022-10-23T04:02:43.642Z,99209.75
2022-10-23T04:05:11.602Z,99213.44
2022-10-23T04:07:40.150Z,99210.97
2022-10-23T04:10:07.161Z,99219.69
2022-10-23T04:12:34.608Z,99217.59
2022-10-23T04:15:01.358Z,99219.03
2022-10-23T04:19:54.935Z,99235.56
2022-10-23T04:22:24.719Z,99229.50
2022-10-23T04:24:54.605Z,99221.78
2022-10-23T04:27:21.343Z,99221.25
2022-10-23T04:29:49.332Z,99212.31
2022-10-23T04:32:16.173Z,99206.63
2022-10-23T04:34:44.252Z,99209.63
2022-10-23T04:37:10.959Z,99209.63
2022-10-23T04:39:38.344Z,99203.03
2022-10-23T04:42:05.154Z,99207.59
2022-10-23T04:44:31.895Z,99190.25
2022-10-23T04:46:58.620Z,99200.22
2022-10-23T04:49:25.628Z,99195.53
2022-10-23T04:52:11.179Z,99194.72
2022-10-23T04:55:04.683Z,99200.22
2022-10-23T04:57:40.626Z,99203.47
2022-10-23T05:00:13.437Z,99200.69
2022-10-23T05:02:54.772Z,99204.09
2022-10-23T05:05:22.075Z,99204.31
2022-10-23T05:08:06.233Z,99202.22
2022-10-23T05:11:06.711Z,99205.81
2022-10-23T05:13:38.784Z,99199.47
2022-10-23T05:16:05.830Z,99208.53
2022-10-23T05:18:36.607Z,99200.53
2022-10-23T05:21:11.669Z,99201.50
2022-10-23T05:23:41.739Z,99196.13
2022-10-23T05:26:08.910Z,99200.53
2022-10-23T05:28:36.895Z,99199.22
2022-10-23T05:31:04.837Z,99204.69
2022-10-23T05:33:34.831Z,99201.28
2022-10-23T05:36:02.101Z,99200.94
2022-10-23T05:38:30.713Z,99203.72
2022-10-23T05:41:00.435Z,99207.22
2022-10-23T05:43:27.476Z,99212.88
2022-10-23T05:46:05.085Z,99208.44
2022-10-23T05:51:40.467Z,99209.16
2022-10-23T05:54:30.239Z,99210.81
2022-10-23T05:57:23.128Z,99214.75
2022-10-23T05:59:51.854Z,99215.69
2022-10-23T06:02:18.641Z,99210.78
2022-10-23T06:05:02.397Z,99213.50
2022-10-23T06:07:49.074Z,99205.38
2022-10-23T06:10:15.972Z,99201.16
2022-10-23T06:12:46.050Z,99192.63
2022-10-23T06:15:16.030Z,99196.53
2022-10-23T06:17:55.663Z,99197.84
2022-10-23T06:20:26.559Z,99184.81
2022-10-23T06:23:07.771Z,99190.78
2022-10-23T06:25:55.862Z,99187.34
2022-10-23T06:28:31.132Z,99182.94
2022-10-23T06:30:58.895Z,99189.41
2022-10-23T06:33:25.784Z,99191.78
2022-10-23T06:35:56.213Z,99192.84
2022-10-23T06:38:23.369Z,99184.03
2022-10-23T06:40:57.931Z,99192.22
2022-10-23T06:43:33.530Z,99184.78
2022-10-23T06:46:22.515Z,99185.72
2022-10-23T06:49:18.544Z,99188.75
2022-10-23T06:51:48.011Z,99189.25
2022-10-23T06:54:16.422Z,99179.66
2022-10-23T06:56:52.107Z,99174.28
2022-10-23T06:59:23.851Z,99182.31
2022-10-23T07:01:52.519Z,99171.94
2022-10-23T07:04:19.614Z,99172.66
2022-10-23T07:06:46.373Z,99169.38
2022-10-23T07:09:13.080Z,99169.63
2022-10-23T07:12:00.163Z,99169.31
2022-10-23T07:14:35.183Z,99162.19
2022-10-23T07:17:03.991Z,99167.63
2022-10-23T07:19:30.731Z,99161.31
2022-10-23T07:22:00.455Z,99151.84
2022-10-23T07:24:51.377Z,99164.59
2022-10-23T07:27:36.700Z,99154.13
2022-10-23T07:30:04.045Z,99163.19
2022-10-23T07:32:38.027Z,99160.56
2022-10-23T07:35:08.232Z,99160.41
2022-10-23T07:37:36.464Z,99159.34
2022-10-23T07:40:05.731Z,99162.41
2022-10-23T07:42:37.248Z,99162.88
2022-10-23T07:45:04.582Z,99157.25
2022-10-23T07:47:32.634Z,99161.13
2022-10-23T07:50:00.790Z,99149.22
2022-10-23T07:52:30.833Z,99147.06
2022-10-23T07:55:16.086Z,99152.00
2022-10-23T07:57:49.391Z,99154.25
2022-10-23T08:00:34.728Z,99157.25
2022-10-23T08:03:12.803Z,99157.56
2022-10-23T08:05:40.200Z,99160.88
2022-10-23T08:08:06.949Z,99162.75
2022-10-23T08:10:34.176Z,99165.41
2022-10-23T08:13:01.342Z,99154.50
2022-10-23T08:15:49.460Z,99164.28
2022-10-23T08:18:52.411Z,99164.94
2022-10-23T08:21:19.961Z,99164.81
2022-10-23T08:23:48.731Z,99165.34
2022-10-23T08:26:16.232Z,99166.78
2022-10-23T08:28:42.946Z,99179.16
2022-10-23T08:31:16.767Z,99177.91
2022-10-23T08:33:58.625Z,99184.28
2022-10-23T08:36:27.519Z,99181.03
2022-10-23T08:38:55.533Z,99181.78
2022-10-23T08:41:35.034Z,99180.22
2022-10-23T08:44:18.235Z,99183.03
2022-10-23T08:46:48.283Z,99186.19
2022-10-23T08:49:57.779Z,99191.94
2022-10-23T08:52:39.960Z,99187.34
2022-10-23T08:55:16.980Z,99183.75
2022-10-23T08:57:50.173Z,99180.63
2022-10-23T09:00:18.056Z,99173.09
2022-10-23T09:02:52.857Z,99171.25
2022-10-23T09:05:25.585Z,99172.56
2022-10-23T09:08:23.110Z,99169.31
2022-10-23T09:11:02.097Z,99167.88
2022-10-23T09:13:47.304Z,99175.69
2022-10-23T09:16:32.549Z,99179.72
2022-10-23T09:18:59.379Z,99177.66
2022-10-23T09:21:28.026Z,99175.47
2022-10-23T09:23:54.938Z,99177.09
2022-10-23T09:26:22.090Z,99174.63
2022-10-23T09:28:51.838Z,99163.13
2022-10-23T09:31:19.737Z,99158.28
2022-10-23T09:34:00.930Z,99170.19
2022-10-23T09:36:29.525Z,99166.19
2022-10-23T09:38:58.968Z,99164.38
2022-10-23T09:41:30.603Z,99157.69
2022-10-23T09:44:24.439Z,99151.28
2022-10-23T09:46:54.007Z,99150.06
2022-10-23T09:49:26.147Z,99148.44
2022-10-23T09:52:03.438Z,99148.50
2022-10-23T09:54:37.008Z,99151.75
2022-10-23T09:57:33.916Z,99145.34
2022-10-23T10:00:16.107Z,99149.44
2022-10-23T10:02:44.758Z,99160.22
2022-10-23T10:05:37.608Z,99150.28
2022-10-23T10:08:24.938Z,99146.22
2022-10-23T10:10:55.205Z,99145.69
2022-10-23T10:13:42.338Z,99147.28
2022-10-23T10:16:12.087Z,99145.13
2022-10-23T10:18:58.710Z,99139.72
2022-10-23T10:21:29.183Z,99144.06
2022-10-23T10:24:08.424Z,99152.44
2022-10-23T10:26:47.346Z,99150.53
2022-10-23T10:29:25.958Z,99146.75
2022-10-23T10:32:33.779Z,99139.47
2022-10-23T10:35:19.195Z,99140.56
2022-10-23T10:38:02.148Z,99140.28
2022-10-23T10:40:32.098Z,99141.34
2022-10-23T10:43:14.003Z,99148.13
2022-10-23T10:46:44.088Z,99142.72
2022-10-23T10:49:16.051Z,99133.00
2022-10-23T10:52:30.375Z,99138.09
2022-10-23T10:55:20.578Z,99127.56
2022-10-23T10:57:59.987Z,99120.50
2022-10-23T11:00:29.020Z,99127.44
2022-10-23T11:03:30.077Z,99136.59
2022-10-23T11:08:49.804Z,99125.78
2022-10-23T11:11:36.621Z,99132.22
2022-10-23T11:14:03.476Z,99134.69
2022-10-23T11:16:35.994Z,99131.56
2022-10-23T11:19:11.411Z,99134.00
2022-10-23T11:21:42.787Z,99126.31
2022-10-23T11:24:30.792Z,99126.94
2022-10-23T11:27:22.563Z,99112.34
2022-10-23T11:30:04.725Z,99125.50
2022-10-23T11:33:13.535Z,99126.97
2022-10-23T11:36:02.936Z,99119.63
2022-10-23T11:38:40.437Z,99113.44
2022-10-23T11:41:26.554Z,99111.53
2022-10-23T11:43:57.063Z,99116.75
2022-10-23T11:46:24.674Z,99109.06
2022-10-23T11:48:52.469Z,99109.22
2022-10-23T11:51:36.082Z,99103.41
2022-10-23T11:54:11.971Z,99101.47
2022-10-23T11:56:51.259Z,99109.31
2022-10-23T11:59:30.656Z,99101.88
2022-10-23T12:02:00.245Z,99099.03
2022-10-23T12:04:34.732Z,99109.06
2022-10-23T12:07:04.820Z,99108.31
2022-10-23T12:09:41.613Z,99099.91
2022-10-23T12:12:08.354Z,99105.38
2022-10-23T12:14:44.059Z,99100.28
2022-10-23T12:17:22.816Z,99097.50
2022-10-23T12:19:55.854Z,99089.03
2022-10-23T12:22:26.831Z,99088.34
2022-10-23T12:24:59.716Z,99083.25
2022-10-23T12:27:46.212Z,99081.38
2022-10-23T12:30:31.594Z,99076.50
2022-10-23T12:33:13.539Z,99065.47
2022-10-23T12:36:12.552Z,99059.81
2022-10-23T12:38:47.511Z,99052.28
2022-10-23T12:41:21.653Z,99046.88
2022-10-23T12:43:55.453Z,99049.28
2022-10-23T12:46:32.906Z,99043.06
2022-10-23T12:49:01.199Z,99049.06
2022-10-23T12:51:30.587Z,99048.00
2022-10-23T12:53:57.907Z,99043.13
2022-10-23T12:56:26.076Z,99037.75
2022-10-23T12:58:58.247Z,99027.22
2022-10-23T13:01:33.485Z,99016.63
2022-10-23T13:04:30.468Z,99002.25
2022-10-23T13:07:00.011Z,99007.13
2022-10-23T13:09:33.079Z,99008.63
2022-10-23T13:12:27.727Z,99008.22
2022-10-23T13:15:06.653Z,99011.75
2022-10-23T13:17:35.818Z,99018.00
2022-10-23T13:20:22.038Z,99020.16
2022-10-23T13:22:56.409Z,99005.91
2022-10-23T13:25:34.251Z,99008.66
2022-10-23T13:28:12.846Z,98990.81
2022-10-23T13:30:43.072Z,98992.72
2022-10-23T13:33:15.989Z,98979.47
2022-10-23T13:35:43.778Z,98975.44
2022-10-23T13:38:10.780Z,98980.56
2022-10-23T13:40:37.708Z,98971.09
2022-10-23T13:43:06.300Z,98967.91
2022-10-23T13:45:35.692Z,98957.88
2022-10-23T13:48:02.424Z,98959.50
2022-10-23T13:50:29.260Z,98958.44
2022-10-23T13:52:56.020Z,98950.94
2022-10-23T14:04:31.862Z,98929.31
2022-10-23T14:06:58.868Z,98930.09
2022-10-23T14:09:25.723Z,98921.47
2022-10-23T14:11:52.467Z,98917.47
2022-10-23T14:14:19.184Z,98913.41
2022-10-23T14:16:46.298Z,98912.09
2022-10-23T14:19:13.162Z,98908.63
2022-10-23T14:21:39.901Z,98905.47
2022-10-23T14:24:06.964Z,98904.59
2022-10-23T14:26:34.381Z,98899.97
2022-10-23T14:29:05.091Z,98897.53
2022-10-23T14:31:35.780Z,98892.47
2022-10-23T14:34:02.564Z,98884.84
2022-10-23T14:36:38.562Z,98888.16
2022-10-23T14:39:16.431Z,98884.41
2022-10-23T14:41:43.190Z,98890.25
2022-10-23T14:44:10.076Z,98888.50
2022-10-23T14:46:38.401Z,98877.09
2022-10-23T14:49:05.629Z,98875.78
2022-10-23T14:51:32.834Z,98869.66
2022-10-23T14:54:01.590Z,98863.75
2022-10-23T14:56:32.993Z,98856.97
2022-10-23T14:59:03.615Z,98856.47
2022-10-23T15:01:43.894Z,98850.97
2022-10-23T15:04:15.029Z,98847.28
2022-10-23T15:06:42.449Z,98852.97
2022-10-23T15:09:09.528Z,98855.88
2022-10-23T15:11:36.389Z,98846.75
2022-10-23T15:14:03.224Z,98842.50
2022-10-23T15:16:30.152Z,98843.75
2022-10-23T15:18:56.895Z,98837.56
2022-10-23T15:21:23.838Z,98846.94
2022-10-23T15:23:50.677Z,98839.16
2022-10-23T15:26:23.799Z,98829.41
2022-10-23T15:28:55.044Z,98830.53
2022-10-23T15:31:43.196Z,98832.75
2022-10-23T15:34:15.668Z,98827.63
2022-10-23T15:36:42.828Z,98827.84
2022-10-23T15:39:10.119Z,98822.28
2022-10-23T15:41:38.783Z,98822.28
2022-10-23T15:44:06.282Z,98818.53
2022-10-23T15:46:33.282Z,98812.81
2022-10-23T15:49:00.020Z,98805.84
2022-10-23T15:51:27.218Z,98795.28
2022-10-23T15:53:54.352Z,98791.44
2022-10-23T15:56:21.101Z,98800.38
2022-10-23T15:58:47.869Z,98788.31
2022-10-23T16:01:14.847Z,98782.34
2022-10-23T16:03:41.730Z,98770.25
2022-10-23T16:06:11.310Z,98770.84
2022-10-23T16:08:39.278Z,98762.22
2022-10-23T16:11:14.886Z,98760.63
2022-10-23T16:13:42.953Z,98768.19
2022-10-23T16:16:09.856Z,98760.38
2022-10-23T16:18:36.760Z,98752.88
2022-10-23T16:21:03.686Z,98745.34
2022-10-23T16:23:30.529Z,98748.00
2022-10-23T16:25:57.232Z,98747.22
2022-10-23T16:28:24.045Z,98744.25
2022-10-23T16:30:50.752Z,98741.03
2022-10-23T16:33:18.382Z,98744.25
2022-10-23T16:35:45.090Z,98741.03
2022-10-23T16:38:17.580Z,98745.88
2022-10-23T16:40:51.172Z,98743.50
2022-10-23T16:43:38.359Z,98732.19
2022-10-23T16:46:16.971Z,98737.03
2022-10-23T16:48:43.803Z,98737.56
2022-10-23T16:51:14.195Z,98733.00
2022-10-23T16:53:41.801Z,98738.38
2022-10-23T16:56:10.675Z,98729.78
2022-10-23T16:58:40.965Z,98733.03
2022-10-23T17:01:22.848Z,98734.91
2022-10-23T17:03:51.523Z,98732.78
2022-10-23T17:06:23.575Z,98747.84
2022-10-23T17:08:50.632Z,98727.13
2022-10-23T17:11:18.737Z,98730.63
2022-10-23T17:13:48.215Z,98724.44
2022-10-23T17:16:18.085Z,98728.50
2022-10-23T17:18:45.187Z,98717.69
2022-10-23T17:21:16.966Z,98729.53
2022-10-23T17:23:44.313Z,98721.75
2022-10-23T17:26:13.473Z,98721.22
2022-10-23T17:28:42.411Z,98706.16
2022-10-23T17:31:12.581Z,98707.78
2022-10-23T17:33:40.430Z,98690.31
2022-10-23T17:36:07.793Z,98686.81
2022-10-23T17:38:38.854Z,98679.81
2022-10-23T17:41:06.791Z,98681.69
2022-10-23T17:43:34.307Z,98668.53
2022-10-23T17:46:01.184Z,98668.25
2022-10-23T17:48:28.046Z,98670.16
2022-10-23T17:51:09.539Z,98671.22
2022-10-23T17:53:38.381Z,98664.75
2022-10-23T17:56:07.209Z,98654.53
2022-10-23T17:58:34.875Z,98659.38
2022-10-23T18:01:06.534Z,98658.84
2022-10-23T18:03:33.957Z,98657.22
2022-10-23T18:06:12.076Z,98652.09
2022-10-23T18:08:40.754Z,98652.66
2022-10-23T18:11:08.629Z,98658.28
2022-10-23T18:13:36.924Z,98658.81
2022-10-23T18:16:06.164Z,98659.63
2022-10-23T18:18:33.737Z,98651.56
2022-10-23T18:21:01.764Z,98649.94
2022-10-23T18:23:29.508Z,98653.47
2022-10-23T18:25:56.844Z,98650.22
2022-10-23T18:28:23.875Z,98651.31
2022-10-23T18:30:53.341Z,98659.09
2022-10-23T18:33:23.099Z,98646.72
2022-10-23T18:35:49.819Z,98645.91
2022-10-23T18:38:16.602Z,98640.25
2022-10-23T18:40:43.846Z,98635.91
2022-10-23T18:43:15.024Z,98635.91
2022-10-23T18:45:46.826Z,98620.06
2022-10-23T18:48:13.689Z,98623.03
2022-10-23T18:50:40.632Z,98613.06
2022-10-23T18:53:07.366Z,98612.78
2022-10-23T18:58:05.989Z,98595.31
2022-10-23T19:00:32.694Z,98589.13
2022-10-23T19:02:59.419Z,98588.06
2022-10-23T19:05:26.251Z,98591.25
2022-10-23T19:07:54.214Z,98590.19
2022-10-23T19:10:22.202Z,98584.00
2022-10-23T19:12:49.135Z,98591.50
2022-10-23T19:15:16.014Z,98588.00
2022-10-23T19:17:42.799Z,98574.53
2022-10-23T19:20:13.525Z,98574.81
2022-10-23T19:22:43.666Z,98583.41
2022-10-23T19:25:12.858Z,98577.22
2022-10-23T19:27:39.978Z,98574.00
2022-10-23T19:30:13.555Z,98567.00
2022-10-23T19:32:41.631Z,98564.56
2022-10-23T19:35:09.199Z,98572.91
2022-10-23T19:37:36.369Z,98564.22
2022-10-23T19:40:06.653Z,98564.53
2022-10-23T19:42:34.480Z,98557.50
2022-10-23T19:45:01.228Z,98554.53
2022-10-23T19:47:28.000Z,98547.28
2022-10-23T19:49:55.030Z,98545.63
2022-10-23T19:52:25.085Z,98541.59
2022-10-23T19:54:52.067Z,98535.66
2022-10-23T19:57:21.834Z,98537.56
2022-10-23T19:59:50.282Z,98528.09
2022-10-23T20:02:20.667Z,98522.47
2022-10-23T20:04:47.558Z,98515.50
2022-10-23T20:07:14.266Z,98516.84
2022-10-23T20:09:41.113Z,98510.38
2022-10-23T20:12:07.839Z,98513.56
2022-10-23T20:14:34.621Z,98501.75
2022-10-23T20:17:01.699Z,98499.63
2022-10-23T20:19:28.793Z,98496.38
2022-10-23T20:21:55.628Z,98504.16
2022-10-23T20:24:22.794Z,98496.06
2022-10-23T20:26:53.979Z,98485.53
2022-10-23T20:29:21.661Z,98488.22
2022-10-23T20:31:48.503Z,98479.09
2022-10-23T20:34:15.401Z,98476.41
2022-10-23T20:36:47.469Z,98460.78
2022-10-23T20:39:17.297Z,98463.25
2022-10-23T20:41:45.149Z,98462.72
2022-10-23T20:44:14.575Z,98454.06
2022-10-23T20:46:42.523Z,98447.09
2022-10-23T20:49:09.725Z,98451.09
2022-10-23T20:51:36.543Z,98442.47
2022-10-23T20:54:03.630Z,98440.56
2022-10-23T20:56:35.492Z,98444.09
2022-10-23T20:59:04.930Z,98439.75
2022-10-23T21:01:33.773Z,98431.16
2022-10-23T21:04:01.989Z,98427.66
2022-10-23T21:06:45.401Z,98430.06
2022-10-23T21:09:17.983Z,98425.97
2022-10-23T21:11:44.789Z,98430.03
2022-10-23T21:14:11.516Z,98412.59
2022-10-23T21:16:44.307Z,98420.34
2022-10-23T21:19:15.892Z,98412.31
2022-10-23T21:21:43.611Z,98409.84
2022-10-23T21:24:14.729Z,98408.19
2022-10-23T21:26:41.959Z,98399.81
2022-10-23T21:29:24.260Z,98400.09
2022-10-23T21:31:53.032Z,98393.91
2022-10-23T21:34:19.815Z,98386.06
2022-10-23T21:37:11.312Z,98387.16
2022-10-23T21:39:34.354Z,98384.16
2022-10-23T21:42:01.175Z,98383.88
2022-10-23T21:44:27.941Z,98382.88
2022-10-23T21:46:55.344Z,98375.75
2022-10-23T21:49:22.099Z,98378.81
2022-10-23T21:51:48.792Z,98371.69
2022-10-23T21:54:15.723Z,98356.88
2022-10-23T21:56:44.957Z,98361.19
2022-10-23T21:59:14.474Z,98360.34
2022-10-23T22:01:43.307Z,98360.38
2022-10-23T22:04:11.688Z,98354.41
2022-10-23T22:06:38.935Z,98355.53
2022-10-23T22:09:06.367Z,98357.47
2022-10-23T22:11:33.315Z,98347.22
2022-10-23T22:14:00.618Z,98342.34
2022-10-23T22:16:27.690Z,98338.69
2022-10-23T22:18:54.438Z,98335.19
2022-10-23T22:21:23.569Z,98327.84
2022-10-23T22:23:50.976Z,98332.19
2022-10-23T22:26:26.945Z,98327.03
2022-10-23T22:28:55.635Z,98326.84
2022-10-23T22:31:25.021Z,98326.69
2022-10-23T22:33:52.711Z,98322.09
2022-10-23T22:36:20.254Z,98326.06
2022-10-23T22:38:47.527Z,98319.66
2022-10-23T22:41:14.498Z,98315.13
2022-10-23T22:43:41.258Z,98319.88
2022-10-23T22:46:09.428Z,98315.66
2022-10-23T22:48:36.471Z,98310.03
2022-10-23T22:51:07.249Z,98298.22
2022-10-23T22:53:35.804Z,98298.13
2022-10-23T22:56:06.647Z,98298.91
2022-10-23T22:58:33.660Z,98302.69
2022-10-23T23:01:08.937Z,98291.50
2022-10-23T23:03:37.010Z,98294.91
2022-10-23T23:06:05.434Z,98295.94
2022-10-23T23:08:32.390Z,98297.59
2022-10-23T23:10:59.168Z,98290.25
2022-10-23T23:13:26.402Z,98280.50
2022-10-23T23:15:53.440Z,98286.03
2022-10-23T23:18:20.581Z,98283.66
2022-10-23T23:20:47.714Z,98276.56
2022-10-23T23:23:14.899Z,98273.81
2022-10-23T23:25:46.856Z,98269.72
2022-10-23T23:28:15.071Z,98266.91
2022-10-23T23:30:42.379Z,98268.50
2022-10-23T23:33:09.955Z,98265.59
2022-10-23T23:35:44.286Z,98265.28
2022-10-23T23:38:11.856Z,98258.41
2022-10-23T23:40:39.040Z,98261.31
2022-10-23T23:43:05.795Z,98252.78
2022-10-23T23:45:32.879Z,98247.34
2022-10-23T23:47:59.786Z,98246.56
2022-10-23T23:50:28.001Z,98243.88
2022-10-23T23:52:54.745Z,98255.59
2022-10-23T23:55:21.674Z,98241.78
2022-10-23T23:57:48.387Z,98248.03
